createdAt,value
2023-04-18T00:01:57.238Z,33.10
2023-04-18T00:04:26.056Z,33.20
2023-04-18T00:06:54.164Z,33.00
2023-04-18T00:09:22.208Z,33.20
2023-04-18T00:11:50.281Z,33.40
2023-04-18T00:14:18.876Z,32.80
2023-04-18T00:16:46.929Z,33.00
2023-04-18T00:19:16.298Z,33.10
2023-04-18T00:21:45.184Z,33.40
2023-04-18T00:24:13.567Z,33.30
2023-04-18T00:26:41.799Z,33.00
2023-04-18T00:29:09.767Z,33.50
2023-04-18T00:31:37.745Z,33.40
2023-04-18T00:34:05.730Z,33.00
2023-04-18T00:36:35.057Z,33.10
2023-04-18T00:39:03.379Z,33.70
2023-04-18T00:41:31.650Z,33.40
2023-04-18T00:43:59.611Z,33.50
2023-04-18T00:46:27.579Z,33.50
2023-04-18T00:48:55.718Z,33.70
2023-04-18T00:51:23.840Z,34.20
2023-04-18T00:53:56.818Z,34.40
2023-04-18T00:56:26.652Z,33.60
2023-04-18T00:58:55.136Z,33.50
2023-04-18T01:01:23.155Z,33.40
2023-04-18T01:03:51.291Z,33.90
2023-04-18T01:06:19.946Z,34.30
2023-04-18T01:08:48.026Z,34.10
2023-04-18T01:11:15.959Z,33.20
2023-04-18T01:14:00.684Z,34.20
2023-04-18T01:16:29.877Z,34.10
2023-04-18T01:18:57.918Z,34.00
2023-04-18T01:21:26.749Z,33.40
2023-04-18T01:23:55.091Z,33.00
2023-04-18T01:26:24.556Z,34.10
2023-04-18T01:28:52.565Z,33.10
2023-04-18T01:31:21.322Z,33.20
2023-04-18T01:33:49.392Z,33.10
2023-04-18T01:36:17.377Z,33.60
2023-04-18T01:38:45.369Z,34.40
2023-04-18T01:41:13.436Z,34.40
2023-04-18T01:43:42.749Z,34.10
2023-04-18T01:46:10.768Z,33.30
2023-04-18T01:48:38.820Z,34.70
2023-04-18T01:51:07.488Z,34.60
2023-04-18T01:53:35.498Z,33.50
2023-04-18T01:56:03.542Z,34.70
2023-04-18T01:58:32.688Z,34.70
2023-04-18T02:01:02.068Z,34.60
2023-04-18T02:03:30.250Z,34.50
2023-04-18T02:05:58.670Z,34.20
2023-04-18T02:08:26.705Z,34.60
2023-04-18T02:10:54.681Z,34.70
2023-04-18T02:13:22.756Z,34.90
2023-04-18T02:15:50.859Z,35.50
2023-04-18T02:18:21.955Z,35.50
2023-04-18T02:20:49.964Z,35.50
2023-04-18T02:23:18.052Z,35.30
2023-04-18T02:25:45.996Z,35.80
2023-04-18T02:28:14.060Z,35.70
2023-04-18T02:30:42.095Z,36.10
2023-04-18T02:33:10.110Z,35.90
2023-04-18T02:35:40.073Z,35.90
2023-04-18T02:38:08.239Z,35.90
2023-04-18T02:40:36.210Z,35.50
2023-04-18T02:43:04.193Z,35.90
2023-04-18T02:45:32.739Z,36.30
2023-04-18T02:48:00.934Z,35.00
2023-04-18T02:50:29.418Z,35.60
2023-04-18T02:52:58.879Z,35.90
2023-04-18T02:55:26.947Z,36.00
2023-04-18T02:57:55.064Z,34.90
2023-04-18T03:00:23.384Z,35.40
2023-04-18T03:02:53.102Z,36.10
2023-04-18T03:05:23.204Z,36.00
2023-04-18T03:07:51.180Z,35.10
2023-04-18T03:10:20.613Z,36.10
2023-04-18T03:12:48.599Z,35.60
2023-04-18T03:15:16.599Z,36.00
2023-04-18T03:17:44.677Z,36.10
2023-04-18T03:20:12.857Z,36.00
2023-04-18T03:22:40.885Z,36.00
2023-04-18T03:25:10.012Z,35.20
2023-04-18T03:27:39.364Z,36.20
2023-04-18T03:30:09.210Z,36.30
2023-04-18T03:32:37.302Z,36.10
2023-04-18T03:35:06.148Z,36.00
2023-04-18T03:37:34.169Z,36.10
2023-04-18T03:40:02.154Z,35.10
2023-04-18T03:42:30.242Z,35.80
2023-04-18T03:44:59.685Z,35.60
2023-04-18T03:47:28.087Z,36.10
2023-04-18T03:49:56.096Z,36.00
2023-04-18T03:52:24.122Z,36.00
2023-04-18T03:54:52.188Z,35.30
2023-04-18T03:57:20.354Z,35.10
2023-04-18T03:59:48.392Z,35.80
2023-04-18T04:02:17.964Z,35.70
2023-04-18T04:04:46.772Z,36.10
2023-04-18T04:07:14.803Z,36.40
2023-04-18T04:09:42.769Z,35.80
2023-04-18T04:12:10.783Z,35.90
2023-04-18T04:14:38.781Z,36.20
2023-04-18T04:17:07.224Z,36.00
2023-04-18T04:19:36.545Z,36.50
2023-04-18T04:22:04.486Z,36.20
2023-04-18T04:24:33.167Z,36.60
2023-04-18T04:27:01.562Z,36.20
2023-04-18T04:29:29.838Z,36.70
2023-04-18T04:31:59.113Z,37.00
2023-04-18T04:34:27.279Z,36.10
2023-04-18T04:36:57.284Z,36.40
2023-04-18T04:39:25.531Z,35.90
2023-04-18T04:41:53.842Z,32.60
2023-04-18T04:44:22.061Z,31.30
2023-04-18T04:46:50.583Z,29.40
2023-04-18T04:49:18.601Z,28.80
2023-04-18T04:51:46.905Z,28.90
2023-04-18T04:54:16.640Z,28.80
2023-04-18T04:56:44.873Z,27.60
2023-04-18T04:59:12.880Z,27.50
2023-04-18T05:01:40.944Z,27.00
2023-04-18T05:04:09.166Z,26.30
2023-04-18T05:06:40.048Z,27.00
2023-04-18T05:09:08.391Z,26.70
2023-04-18T05:11:37.785Z,27.30
2023-04-18T05:14:05.921Z,27.20
2023-04-18T05:16:34.027Z,27.10
2023-04-18T05:19:02.152Z,27.00
2023-04-18T05:21:31.183Z,27.00
2023-04-18T05:23:59.136Z,27.60
2023-04-18T05:26:27.332Z,27.70
2023-04-18T05:28:56.642Z,28.30
2023-04-18T05:31:24.823Z,27.40
2023-04-18T05:33:52.859Z,28.00
2023-04-18T05:36:21.268Z,28.10
2023-04-18T05:38:49.260Z,28.00
2023-04-18T05:41:17.277Z,27.70
2023-04-18T05:43:54.236Z,28.30
2023-04-18T05:46:31.710Z,28.00
2023-04-18T05:48:59.827Z,28.10
2023-04-18T05:51:28.606Z,28.40
2023-04-18T05:53:56.794Z,27.90
2023-04-18T05:56:24.869Z,28.20
2023-04-18T05:58:52.924Z,27.90
2023-04-18T06:01:21.265Z,28.10
2023-04-18T06:03:50.703Z,28.20
2023-04-18T06:06:18.974Z,28.20
2023-04-18T06:08:47.226Z,28.40
2023-04-18T06:11:15.351Z,28.40
2023-04-18T06:13:43.883Z,28.10
2023-04-18T06:16:11.982Z,28.50
2023-04-18T06:18:40.298Z,28.50
2023-04-18T06:21:09.666Z,28.50
2023-04-18T06:23:38.423Z,28.10
2023-04-18T06:26:07.693Z,28.40
2023-04-18T06:28:35.806Z,28.30
2023-04-18T06:31:04.094Z,28.10
2023-04-18T06:33:32.174Z,29.20
2023-04-18T06:36:00.269Z,28.50
2023-04-18T06:38:29.775Z,28.50
2023-04-18T06:40:57.733Z,28.40
2023-04-18T06:43:25.952Z,28.30
2023-04-18T06:45:54.009Z,28.40
2023-04-18T06:48:22.017Z,28.50
2023-04-18T06:50:49.959Z,28.30
2023-04-18T06:53:18.050Z,28.60
2023-04-18T06:55:47.396Z,28.10
2023-04-18T06:58:16.672Z,28.50
2023-04-18T07:00:47.526Z,28.20
2023-04-18T07:03:15.732Z,28.70
2023-04-18T07:05:43.846Z,28.50
2023-04-18T07:08:12.077Z,28.50
2023-04-18T07:10:40.006Z,27.80
2023-04-18T07:13:09.366Z,25.40
2023-04-18T07:15:37.303Z,26.00
2023-04-18T07:18:05.717Z,24.90
2023-04-18T07:20:33.797Z,23.90
2023-04-18T07:23:01.805Z,24.00
2023-04-18T07:25:29.846Z,22.50
2023-04-18T07:27:58.092Z,22.10
2023-04-18T07:30:27.511Z,20.90
2023-04-18T07:32:55.813Z,20.50
2023-04-18T07:35:24.013Z,18.10
2023-04-18T07:37:53.721Z,20.50
2023-04-18T07:40:22.525Z,20.30
2023-04-18T07:42:50.504Z,19.80
2023-04-18T07:45:19.072Z,18.70
2023-04-18T07:47:48.482Z,19.10
2023-04-18T07:50:16.534Z,17.20
2023-04-18T07:52:47.554Z,17.70
2023-04-18T07:55:15.873Z,17.90
2023-04-18T07:57:45.875Z,18.20
2023-04-18T08:00:16.210Z,17.50
2023-04-18T08:02:44.351Z,17.80
2023-04-18T08:05:13.768Z,17.20
2023-04-18T08:07:41.829Z,17.10
2023-04-18T08:10:10.375Z,17.20
2023-04-18T08:12:40.385Z,16.70
2023-04-18T08:15:10.496Z,16.40
2023-04-18T08:17:38.866Z,16.20
2023-04-18T08:20:08.329Z,15.40
2023-04-18T08:22:46.789Z,16.00
2023-04-18T08:25:25.354Z,16.30
2023-04-18T08:27:53.474Z,16.50
2023-04-18T08:30:21.528Z,16.10
2023-04-18T08:32:49.646Z,15.70
2023-04-18T08:35:17.893Z,16.20
2023-04-18T08:37:47.233Z,16.20
2023-04-18T08:40:15.609Z,16.00
2023-04-18T08:42:45.353Z,15.80
2023-04-18T08:45:14.968Z,15.70
2023-04-18T08:47:43.226Z,16.50
2023-04-18T08:50:12.608Z,15.00
2023-04-18T08:52:48.766Z,15.50
2023-04-18T08:55:16.911Z,15.70
2023-04-18T08:57:45.733Z,15.80
2023-04-18T09:00:16.466Z,14.90
2023-04-18T09:02:46.808Z,15.60
2023-04-18T09:05:19.011Z,15.20
2023-04-18T09:07:50.691Z,15.30
2023-04-18T09:10:28.533Z,15.70
2023-04-18T09:12:58.521Z,16.50
2023-04-18T09:15:29.084Z,17.10
2023-04-18T09:17:58.802Z,16.60
2023-04-18T09:20:35.782Z,16.20
2023-04-18T09:23:10.332Z,16.60
2023-04-18T09:25:46.313Z,16.90
2023-04-18T09:28:26.780Z,17.10
2023-04-18T09:30:56.194Z,17.10
2023-04-18T09:33:29.119Z,17.20
2023-04-18T09:36:00.191Z,17.30
2023-04-18T09:38:41.986Z,17.10
2023-04-18T09:41:10.995Z,17.70
2023-04-18T09:43:39.428Z,17.60
2023-04-18T09:46:09.421Z,17.70
2023-04-18T09:48:37.858Z,17.70
2023-04-18T09:51:08.490Z,17.30
2023-04-18T09:53:41.981Z,18.00
2023-04-18T09:56:15.875Z,18.10
2023-04-18T09:58:48.193Z,18.20
2023-04-18T10:01:16.651Z,18.40
2023-04-18T10:03:48.801Z,18.50
2023-04-18T10:06:17.873Z,19.00
2023-04-18T10:08:49.315Z,18.60
2023-04-18T10:11:19.224Z,18.80
2023-04-18T10:13:50.360Z,18.80
2023-04-18T10:16:20.343Z,18.50
2023-04-18T10:18:50.966Z,18.40
2023-04-18T10:21:18.984Z,17.90
2023-04-18T10:23:50.220Z,18.50
2023-04-18T10:26:18.253Z,18.40
2023-04-18T10:28:55.125Z,18.10
2023-04-18T10:31:24.202Z,18.80
2023-04-18T10:36:28.271Z,19.20
2023-04-18T10:39:03.007Z,19.00
2023-04-18T10:41:32.790Z,19.40
2023-04-18T10:44:22.411Z,19.30
2023-04-18T10:47:33.215Z,18.90
2023-04-18T10:50:06.141Z,18.80
2023-04-18T10:52:35.437Z,18.50
2023-04-18T10:55:19.007Z,18.40
2023-04-18T10:57:48.347Z,18.70
2023-04-18T11:00:20.505Z,18.30
2023-04-18T11:02:55.915Z,18.90
2023-04-18T11:05:26.851Z,18.50
2023-04-18T11:07:55.036Z,18.70
2023-04-18T11:10:26.363Z,18.30
2023-04-18T11:12:55.776Z,18.50
2023-04-18T11:15:26.851Z,18.10
2023-04-18T11:18:01.660Z,18.90
2023-04-18T11:20:30.598Z,17.90
2023-04-18T11:23:00.406Z,18.30
2023-04-18T11:25:34.299Z,18.30
2023-04-18T11:28:04.492Z,18.80
2023-04-18T11:30:38.294Z,18.70
2023-04-18T11:33:08.515Z,18.40
2023-04-18T11:35:39.856Z,19.00
2023-04-18T11:38:08.728Z,19.10
2023-04-18T11:40:38.690Z,19.10
2023-04-18T11:43:08.786Z,19.30
2023-04-18T11:45:36.968Z,19.20
2023-04-18T11:48:05.079Z,19.20
2023-04-18T11:50:37.962Z,19.50
2023-04-18T11:53:05.957Z,19.50
2023-04-18T11:55:34.195Z,19.20
2023-04-18T11:58:04.256Z,19.50
2023-04-18T12:00:34.421Z,19.60
2023-04-18T12:03:05.375Z,18.70
2023-04-18T12:05:36.173Z,19.10
2023-04-18T12:08:08.810Z,20.20
2023-04-18T12:10:36.845Z,19.20
2023-04-18T12:13:09.595Z,19.40
2023-04-18T12:15:41.465Z,19.40
2023-04-18T12:18:09.725Z,19.60
2023-04-18T12:20:40.015Z,19.50
2023-04-18T12:23:09.506Z,19.70
2023-04-18T12:25:38.394Z,19.20
2023-04-18T12:28:17.512Z,19.60
2023-04-18T12:30:45.576Z,19.70
2023-04-18T12:33:13.629Z,19.90
2023-04-18T12:35:42.447Z,20.20
2023-04-18T12:38:10.896Z,20.30
2023-04-18T12:40:40.362Z,20.10
2023-04-18T12:43:08.877Z,20.30
2023-04-18T12:45:38.287Z,20.60
2023-04-18T12:48:07.271Z,20.10
2023-04-18T12:50:35.556Z,20.30
2023-04-18T12:53:03.853Z,20.30
2023-04-18T12:55:31.957Z,20.20
2023-04-18T12:58:00.030Z,20.50
2023-04-18T13:00:31.114Z,20.40
2023-04-18T13:03:00.786Z,20.60
2023-04-18T13:05:33.542Z,20.30
2023-04-18T13:08:15.209Z,20.70
2023-04-18T13:10:44.832Z,20.60
2023-04-18T13:13:12.903Z,20.30
2023-04-18T13:15:41.095Z,20.30
2023-04-18T13:18:10.381Z,20.40
2023-04-18T13:20:38.478Z,20.40
2023-04-18T13:23:06.716Z,20.30
2023-04-18T13:25:34.682Z,20.60
2023-04-18T13:28:02.638Z,20.90
2023-04-18T13:30:31.967Z,20.80
2023-04-18T13:33:00.113Z,20.30
2023-04-18T13:35:29.687Z,20.50
2023-04-18T13:37:57.685Z,20.10
2023-04-18T13:40:26.380Z,20.70
2023-04-18T13:42:54.339Z,20.60
2023-04-18T13:45:22.293Z,20.50
2023-04-18T13:47:50.829Z,20.90
2023-04-18T13:50:19.092Z,20.70
2023-04-18T13:52:49.310Z,20.80
2023-04-18T13:55:18.673Z,20.80
2023-04-18T13:57:46.856Z,21.50
2023-04-18T14:00:16.813Z,20.20
2023-04-18T14:02:45.149Z,20.80
2023-04-18T14:05:13.419Z,20.50
2023-04-18T14:07:41.432Z,20.80
2023-04-18T14:10:12.056Z,20.50
2023-04-18T14:12:40.125Z,20.40
2023-04-18T14:15:10.331Z,20.00
2023-04-18T14:17:38.262Z,20.40
2023-04-18T14:20:08.526Z,20.30
2023-04-18T14:22:36.643Z,20.40
2023-04-18T14:25:05.292Z,18.40
2023-04-18T14:27:34.596Z,16.60
2023-04-18T14:30:02.566Z,15.40
2023-04-18T14:32:31.029Z,15.20
2023-04-18T14:34:59.751Z,15.40
2023-04-18T14:37:27.692Z,14.90
2023-04-18T14:39:55.693Z,14.40
2023-04-18T14:42:23.699Z,14.70
2023-04-18T14:44:53.016Z,14.90
2023-04-18T14:47:21.534Z,13.60
2023-04-18T14:49:49.642Z,14.50
2023-04-18T14:52:17.705Z,14.30
2023-04-18T14:54:45.689Z,15.70
2023-04-18T14:57:14.106Z,15.00
2023-04-18T14:59:42.090Z,15.30
2023-04-18T15:02:11.605Z,16.10
2023-04-18T15:04:39.762Z,16.70
2023-04-18T15:07:08.632Z,17.60
2023-04-18T15:09:37.671Z,18.10
2023-04-18T15:12:07.071Z,18.40
2023-04-18T15:14:35.568Z,18.50
2023-04-18T15:17:04.401Z,18.40
2023-04-18T15:19:34.334Z,19.10
2023-04-18T15:22:02.920Z,18.70
2023-04-18T15:24:30.950Z,19.30
2023-04-18T15:26:58.942Z,19.10
2023-04-18T15:29:26.977Z,19.70
2023-04-18T15:31:55.050Z,19.60
2023-04-18T15:34:23.197Z,19.70
2023-04-18T15:36:52.537Z,19.80
2023-04-18T15:39:23.365Z,20.00
2023-04-18T15:41:54.457Z,19.90
2023-04-18T15:44:22.717Z,19.70
2023-04-18T15:46:51.220Z,19.80
2023-04-18T15:49:19.200Z,19.90
2023-04-18T15:51:47.215Z,20.20
2023-04-18T15:54:16.703Z,19.60
2023-04-18T15:56:44.991Z,19.60
2023-04-18T15:59:13.551Z,19.70
2023-04-18T16:01:42.781Z,19.70
2023-04-18T16:04:12.837Z,20.10
2023-04-18T16:06:41.221Z,20.10
2023-04-18T16:09:09.789Z,20.20
2023-04-18T16:11:39.046Z,20.10
2023-04-18T16:14:07.026Z,20.40
2023-04-18T16:16:35.338Z,20.40
2023-04-18T16:19:04.248Z,19.90
2023-04-18T16:21:32.457Z,20.20
2023-04-18T16:24:00.572Z,20.10
2023-04-18T16:26:28.902Z,20.40
2023-04-18T16:28:58.297Z,20.10
2023-04-18T16:31:26.422Z,20.20
2023-04-18T16:33:54.526Z,20.30
2023-04-18T16:36:22.582Z,20.10
2023-04-18T16:38:50.526Z,19.90
2023-04-18T16:41:18.522Z,20.30
2023-04-18T16:43:46.545Z,20.60
2023-04-18T16:46:15.899Z,20.20
2023-04-18T16:48:45.108Z,20.30
2023-04-18T16:51:13.172Z,20.30
2023-04-18T16:53:41.208Z,20.40
2023-04-18T16:56:09.300Z,20.40
2023-04-18T16:58:37.283Z,20.30
2023-04-18T17:01:07.905Z,20.30
2023-04-18T17:03:37.502Z,20.30
2023-04-18T17:06:06.157Z,20.40
2023-04-18T17:08:34.112Z,20.10
2023-04-18T17:11:02.388Z,20.10
2023-04-18T17:13:31.374Z,20.10
2023-04-18T17:15:59.393Z,20.10
2023-04-18T17:18:27.433Z,20.10
2023-04-18T17:20:56.750Z,20.20
2023-04-18T17:23:24.804Z,20.10
2023-04-18T17:25:52.821Z,20.10
2023-04-18T17:28:21.136Z,20.40
2023-04-18T17:30:50.190Z,20.20
2023-04-18T17:33:18.385Z,20.10
2023-04-18T17:35:47.029Z,20.40
2023-04-18T17:38:16.364Z,20.20
2023-04-18T17:40:44.352Z,19.90
2023-04-18T17:43:12.713Z,20.40
2023-04-18T17:45:41.084Z,20.40
2023-04-18T17:48:09.073Z,21.20
2023-04-18T17:50:38.005Z,20.50
2023-04-18T17:53:06.007Z,20.40
2023-04-18T17:55:35.484Z,20.60
2023-04-18T17:58:05.060Z,20.70
2023-04-18T18:00:33.034Z,20.60
2023-04-18T18:03:01.607Z,20.00
2023-04-18T18:05:30.033Z,20.20
2023-04-18T18:07:58.446Z,20.20
2023-04-18T18:10:26.945Z,20.70
2023-04-18T18:12:56.395Z,20.60
2023-04-18T18:15:25.042Z,20.90
2023-04-18T18:17:54.769Z,20.90
2023-04-18T18:20:22.929Z,21.30
2023-04-18T18:22:51.329Z,21.40
2023-04-18T18:25:20.594Z,21.50
2023-04-18T18:27:49.283Z,21.50
2023-04-18T18:30:19.296Z,21.30
2023-04-18T18:32:47.333Z,21.50
2023-04-18T18:35:15.336Z,21.50
2023-04-18T18:37:43.371Z,21.70
2023-04-18T18:40:12.412Z,21.60
2023-04-18T18:42:40.494Z,22.30
2023-04-18T18:45:10.394Z,22.20
2023-04-18T18:47:40.222Z,22.80
2023-04-18T18:50:09.215Z,23.30
2023-04-18T18:52:40.493Z,23.10
2023-04-18T18:55:10.041Z,23.20
2023-04-18T18:57:38.535Z,23.40
2023-04-18T19:00:10.666Z,22.90
2023-04-18T19:02:40.698Z,23.60
2023-04-18T19:05:09.736Z,23.40
2023-04-18T19:07:37.692Z,23.70
2023-04-18T19:10:11.857Z,23.20
2023-04-18T19:12:40.240Z,23.20
2023-04-18T19:15:11.040Z,23.10
2023-04-18T19:17:43.415Z,23.80
2023-04-18T19:20:12.034Z,23.20
2023-04-18T19:22:40.081Z,23.70
2023-04-18T19:25:10.065Z,23.30
2023-04-18T19:27:38.047Z,23.80
2023-04-18T19:30:07.708Z,23.70
2023-04-18T19:32:35.963Z,23.90
2023-04-18T19:35:06.757Z,24.00
2023-04-18T19:37:34.747Z,24.00
2023-04-18T19:40:03.514Z,23.90
2023-04-18T19:42:31.515Z,23.90
2023-04-18T19:45:00.226Z,23.60
2023-04-18T19:47:31.986Z,23.50
2023-04-18T19:50:00.269Z,24.70
2023-04-18T19:52:29.747Z,24.30
2023-04-18T19:54:57.683Z,24.50
2023-04-18T19:57:26.350Z,23.50
2023-04-18T19:59:54.324Z,24.20
2023-04-18T20:02:22.475Z,24.40
2023-04-18T20:04:50.707Z,23.70
2023-04-18T20:07:18.888Z,24.20
2023-04-18T20:09:48.141Z,23.70
2023-04-18T20:12:16.121Z,24.10
2023-04-18T20:14:45.068Z,24.80
2023-04-18T20:17:13.094Z,24.00
2023-04-18T20:19:41.256Z,25.10
2023-04-18T20:22:09.354Z,24.60
2023-04-18T20:24:39.156Z,25.00
2023-04-18T20:27:08.963Z,24.30
2023-04-18T20:29:36.930Z,25.00
2023-04-18T20:32:05.681Z,24.90
2023-04-18T20:34:33.598Z,25.20
2023-04-18T20:37:01.586Z,24.90
2023-04-18T20:39:29.696Z,24.90
2023-04-18T20:41:57.923Z,25.40
2023-04-18T20:44:28.054Z,24.50
2023-04-18T20:46:56.098Z,25.00
2023-04-18T20:49:24.165Z,25.20
2023-04-18T20:51:52.184Z,24.80
2023-04-18T20:54:20.184Z,25.30
2023-04-18T20:56:48.115Z,25.50
2023-04-18T20:59:16.101Z,25.60
2023-04-18T21:01:46.859Z,25.70
2023-04-18T21:04:15.180Z,25.70
2023-04-18T21:06:43.683Z,25.10
2023-04-18T21:09:11.732Z,25.60
2023-04-18T21:11:40.536Z,25.20
2023-04-18T21:14:08.698Z,25.30
2023-04-18T21:16:39.177Z,26.00
2023-04-18T21:19:08.728Z,25.60
2023-04-18T21:21:36.676Z,26.30
2023-04-18T21:24:05.564Z,26.40
2023-04-18T21:26:33.853Z,26.20
2023-04-18T21:29:04.694Z,25.90
2023-04-18T21:31:34.937Z,25.90
2023-04-18T21:34:05.122Z,26.40
2023-04-18T21:36:34.667Z,26.00
2023-04-18T21:39:03.905Z,26.60
2023-04-18T21:41:31.989Z,26.10
2023-04-18T21:44:00.050Z,26.40
2023-04-18T21:46:28.150Z,26.80
2023-04-18T21:48:56.052Z,26.70
2023-04-18T21:51:24.065Z,26.90
2023-04-18T21:53:53.579Z,26.80
2023-04-18T21:56:21.666Z,26.70
2023-04-18T21:58:50.159Z,26.90
2023-04-18T22:01:18.285Z,27.20
2023-04-18T22:03:46.825Z,27.30
2023-04-18T22:06:14.972Z,27.10
2023-04-18T22:08:43.093Z,27.10
2023-04-18T22:11:13.524Z,27.20
2023-04-18T22:13:44.502Z,27.10
2023-04-18T22:16:12.912Z,27.10
2023-04-18T22:18:40.939Z,27.30
2023-04-18T22:21:09.476Z,27.30
2023-04-18T22:23:37.454Z,27.10
2023-04-18T22:26:05.538Z,27.20
2023-04-18T22:28:34.910Z,27.50
2023-04-18T22:31:03.013Z,27.90
2023-04-18T22:33:31.072Z,27.70
2023-04-18T22:35:59.071Z,28.40
2023-04-18T22:38:27.064Z,27.60
2023-04-18T22:40:55.178Z,27.80
2023-04-18T22:43:24.265Z,28.10
2023-04-18T22:45:53.755Z,27.90
2023-04-18T22:48:21.720Z,27.90
2023-04-18T22:50:49.940Z,28.00
2023-04-18T22:53:18.349Z,28.00
2023-04-18T22:55:46.879Z,28.00
2023-04-18T22:58:14.972Z,28.20
2023-04-18T23:00:43.123Z,27.70
2023-04-18T23:03:12.649Z,28.20
2023-04-18T23:05:41.841Z,28.30
2023-04-18T23:08:11.789Z,27.70
2023-04-18T23:10:40.092Z,28.40
2023-04-18T23:13:08.195Z,28.10
2023-04-18T23:15:36.215Z,28.60
2023-04-18T23:18:04.380Z,28.10
2023-04-18T23:20:33.756Z,28.70
2023-04-18T23:23:02.129Z,28.40
2023-04-18T23:25:32.707Z,28.50
2023-04-18T23:28:00.962Z,28.50
2023-04-18T23:30:29.009Z,28.80
2023-04-18T23:32:56.983Z,28.50
2023-04-18T23:35:25.037Z,28.30
2023-04-18T23:37:54.428Z,28.70
2023-04-18T23:40:23.088Z,28.70
2023-04-18T23:42:51.079Z,28.70
2023-04-18T23:45:19.206Z,28.70
2023-04-18T23:47:47.827Z,28.60
2023-04-18T23:50:15.927Z,28.90
2023-04-18T23:52:44.004Z,28.90
2023-04-18T23:55:13.514Z,28.70
2023-04-18T23:57:41.502Z,28.80
